Susan Ann — WCY5700 — position and weather

sailwx.info

Track history (hours):
 
Tides and Currents Weather Stations Pressure Air Temp Water Temp Dewpoint Dewpoint Depression Visibility Wind Speed Wind Dir Waves Ship Positions

Susan Ann

Owner: CROSS SOUND FERRY SERVICES INC, NEW LONDON, CT. More information available from US FCC via Universal Licensing System and Coast Guard Vessel Documentation Center.

Last reported at 2017-Aug-16 19:59 UTC. Time now 2017-Aug-16 21:50 UTC.
Position N 41°12' W 072°12'.

Length 72 m; draft 4 m.

Type: Passenger vessel. MMSI: 367354350.

Date/timePositionNaut miles runAvg speedWind from/ knotsBaromVisibWave heightAir tempDewpointWater temp
2017-Aug-16 19:59N 41°12' W 072°12'6 0.3
2017-Aug-16 01:25N 41°16' W 072°07'8 7.1
2017-Aug-16 00:15N 41°09' W 072°14'311.5
2017-Aug-16 00:00N 41°12' W 072°12'2 0.2
2017-Aug-15 15:52N 41°13' W 072°11'4 1.8
2017-Aug-15 13:44N 41°15' W 072°07'3 0.2
2017-Aug-15 01:55N 41°18' W 072°05'613.9
2017-Aug-15 01:30N 41°13' W 072°10'6 8.1
2017-Aug-15 00:49N 41°09' W 072°14'1 1.7
2017-Aug-15 00:19N 41°09' W 072°13'310.1
2017-Aug-15 00:00N 41°12' W 072°12'5 2.3
2017-Aug-14 21:49N 41°16' W 072°07'3 0.4
2017-Aug-14 13:34N 41°13' W 072°10'214.5
2017-Aug-14 13:27N 41°12' W 072°11'4 3.5
2017-Aug-14 12:23N 41°09' W 072°14'4 9.1
2017-Aug-14 11:59N 41°12' W 072°11'7 0.7
2017-Aug-14 02:00N 41°17' W 072°05'714.1
2017-Aug-14 01:30N 41°12' W 072°11'4 3.4
2017-Aug-14 00:28N 41°09' W 072°14'4 8.8
2017-Aug-13 23:59N 41°13' W 072°11'5 2.4
2017-Aug-13 21:57N 41°16' W 072°06'714.9
2017-Aug-13 21:30N 41°11' W 072°13'4 0.5
2017-Aug-13 13:39N 41°14' W 072°09'3 0.2
2017-Aug-13 00:43N 41°16' W 072°07'314.6
2017-Aug-13 00:30N 41°13' W 072°09'4 3.1
2017-Aug-12 23:09N 41°10' W 072°13'211.7
2017-Aug-12 22:58N 41°12' W 072°12'3 0.2
2017-Aug-12 02:03N 41°09' W 072°14'2 6.9
2017-Aug-12 01:50N 41°10' W 072°13'413.0
2017-Aug-12 01:30N 41°14' W 072°10'5 3.1
2017-Aug-11 23:55N 41°17' W 072°05'1 0.3
2017-Aug-11 19:52N 41°16' W 072°06'514.4
2017-Aug-11 19:30N 41°12' W 072°11'1 0.7
2017-Aug-11 17:56N 41°12' W 072°12'3 1.1
2017-Aug-11 15:36N 41°14' W 072°10'3 1.5
2017-Aug-11 13:55N 41°12' W 072°12'2 0.1
2017-Aug-11 01:47N 41°11' W 072°14'413.9
2017-Aug-11 01:30N 41°14' W 072°10'6 3.7
2017-Aug-10 23:57N 41°18' W 072°05'613.5
2017-Aug-10 23:30N 41°13' W 072°10'4 2.9
2017-Aug-10 22:15N 41°11' W 072°14'410.9
2017-Aug-10 21:55N 41°13' W 072°10'2 0.3
2017-Aug-10 15:46N 41°14' W 072°09'311.3
2017-Aug-10 15:30N 41°12' W 072°11'1 0.7
2017-Aug-10 13:47N 41°13' W 072°11'5 0.4
2017-Aug-10 02:01N 41°09' W 072°14'011.4
2017-Aug-10 02:01N 41°09' W 072°14'712.2
2017-Aug-10 01:25N 41°15' W 072°09'1 0.7
2017-Aug-09 23:39N 41°14' W 072°09'314.1
2017-Aug-09 23:28N 41°12' W 072°12'7 1.9
2017-Aug-09 19:53N 41°17' W 072°05'615.2
2017-Aug-09 19:30N 41°13' W 072°11'3 1.9
2017-Aug-09 18:09N 41°11' W 072°13'211.3
2017-Aug-09 18:00N 41°13' W 072°12'6 2.8
2017-Aug-09 15:53N 41°16' W 072°06'612.3
2017-Aug-09 15:25N 41°12' W 072°11'3 1.8
2017-Aug-09 14:01N 41°10' W 072°14'012.2
2017-Aug-09 14:00N 41°11' W 072°14'5 1.9
2017-Aug-09 11:37N 41°14' W 072°09'5 0.5
2017-Aug-09 01:53N 41°10' W 072°13'512.1
2017-Aug-09 01:30N 41°14' W 072°11'7 4.6
2017-Aug-09 00:05N 41°19' W 072°05'212.5
2017-Aug-08 23:56N 41°17' W 072°06'612.9
2017-Aug-08 23:30N 41°13' W 072°10'4 3.7
2017-Aug-08 22:20N 41°09' W 072°14'6 0.5
2017-Aug-08 11:36N 41°14' W 072°09'4 0.4
2017-Aug-08 01:45N 41°11' W 072°13'314.3
2017-Aug-08 01:30N 41°14' W 072°11'3 1.8
2017-Aug-07 23:47N 41°16' W 072°07'412.7
2017-Aug-07 23:26N 41°12' W 072°12'  
Track history (hours):
 
Tides and Currents Weather Stations Pressure Air Temp Water Temp Dewpoint Dewpoint Depression Visibility Wind Speed Wind Dir Waves Ship Positions

Susan Ann

Owner: CROSS SOUND FERRY SERVICES INC, NEW LONDON, CT. More information available from US FCC via Universal Licensing System and Coast Guard Vessel Documentation Center.

Last reported at 2017-Aug-16 19:59 UTC. Time now 2017-Aug-16 21:50 UTC.
Position N 41°12' W 072°12'.

Length 72 m; draft 4 m.

Type: Passenger vessel. MMSI: 367354350.

Date/timePositionNaut miles runAvg speedWind from/ knotsBaromVisibWave heightAir tempDewpointWater temp
2017-Aug-16 19:59N 41°12' W 072°12'6 0.3
2017-Aug-16 01:25N 41°16' W 072°07'8 7.1
2017-Aug-16 00:15N 41°09' W 072°14'311.5
2017-Aug-16 00:00N 41°12' W 072°12'2 0.2
2017-Aug-15 15:52N 41°13' W 072°11'4 1.8
2017-Aug-15 13:44N 41°15' W 072°07'3 0.2
2017-Aug-15 01:55N 41°18' W 072°05'613.9
2017-Aug-15 01:30N 41°13' W 072°10'6 8.1
2017-Aug-15 00:49N 41°09' W 072°14'1 1.7
2017-Aug-15 00:19N 41°09' W 072°13'310.1
2017-Aug-15 00:00N 41°12' W 072°12'5 2.3
2017-Aug-14 21:49N 41°16' W 072°07'3 0.4
2017-Aug-14 13:34N 41°13' W 072°10'214.5
2017-Aug-14 13:27N 41°12' W 072°11'4 3.5
2017-Aug-14 12:23N 41°09' W 072°14'4 9.1
2017-Aug-14 11:59N 41°12' W 072°11'7 0.7
2017-Aug-14 02:00N 41°17' W 072°05'714.1
2017-Aug-14 01:30N 41°12' W 072°11'4 3.4
2017-Aug-14 00:28N 41°09' W 072°14'4 8.8
2017-Aug-13 23:59N 41°13' W 072°11'5 2.4
2017-Aug-13 21:57N 41°16' W 072°06'714.9
2017-Aug-13 21:30N 41°11' W 072°13'4 0.5
2017-Aug-13 13:39N 41°14' W 072°09'3 0.2
2017-Aug-13 00:43N 41°16' W 072°07'314.6
2017-Aug-13 00:30N 41°13' W 072°09'4 3.1
2017-Aug-12 23:09N 41°10' W 072°13'211.7
2017-Aug-12 22:58N 41°12' W 072°12'3 0.2
2017-Aug-12 02:03N 41°09' W 072°14'2 6.9
2017-Aug-12 01:50N 41°10' W 072°13'413.0
2017-Aug-12 01:30N 41°14' W 072°10'5 3.1
2017-Aug-11 23:55N 41°17' W 072°05'1 0.3
2017-Aug-11 19:52N 41°16' W 072°06'514.4
2017-Aug-11 19:30N 41°12' W 072°11'1 0.7
2017-Aug-11 17:56N 41°12' W 072°12'3 1.1
2017-Aug-11 15:36N 41°14' W 072°10'3 1.5
2017-Aug-11 13:55N 41°12' W 072°12'2 0.1
2017-Aug-11 01:47N 41°11' W 072°14'413.9
2017-Aug-11 01:30N 41°14' W 072°10'6 3.7
2017-Aug-10 23:57N 41°18' W 072°05'613.5
2017-Aug-10 23:30N 41°13' W 072°10'4 2.9
2017-Aug-10 22:15N 41°11' W 072°14'410.9
2017-Aug-10 21:55N 41°13' W 072°10'2 0.3
2017-Aug-10 15:46N 41°14' W 072°09'311.3
2017-Aug-10 15:30N 41°12' W 072°11'1 0.7
2017-Aug-10 13:47N 41°13' W 072°11'5 0.4
2017-Aug-10 02:01N 41°09' W 072°14'011.4
2017-Aug-10 02:01N 41°09' W 072°14'712.2
2017-Aug-10 01:25N 41°15' W 072°09'1 0.7
2017-Aug-09 23:39N 41°14' W 072°09'314.1
2017-Aug-09 23:28N 41°12' W 072°12'7 1.9
2017-Aug-09 19:53N 41°17' W 072°05'615.2
2017-Aug-09 19:30N 41°13' W 072°11'3 1.9
2017-Aug-09 18:09N 41°11' W 072°13'211.3
2017-Aug-09 18:00N 41°13' W 072°12'6 2.8
2017-Aug-09 15:53N 41°16' W 072°06'612.3
2017-Aug-09 15:25N 41°12' W 072°11'3 1.8
2017-Aug-09 14:01N 41°10' W 072°14'012.2
2017-Aug-09 14:00N 41°11' W 072°14'5 1.9
2017-Aug-09 11:37N 41°14' W 072°09'5 0.5
2017-Aug-09 01:53N 41°10' W 072°13'512.1
2017-Aug-09 01:30N 41°14' W 072°11'7 4.6
2017-Aug-09 00:05N 41°19' W 072°05'212.5
2017-Aug-08 23:56N 41°17' W 072°06'612.9
2017-Aug-08 23:30N 41°13' W 072°10'4 3.7
2017-Aug-08 22:20N 41°09' W 072°14'6 0.5
2017-Aug-08 11:36N 41°14' W 072°09'4 0.4
2017-Aug-08 01:45N 41°11' W 072°13'314.3
2017-Aug-08 01:30N 41°14' W 072°11'3 1.8
2017-Aug-07 23:47N 41°16' W 072°07'412.7
2017-Aug-07 23:26N 41°12' W 072°12'  

Dump ship's entire track history